Time;durP1;ratioP1;P1;durP2;ratioP2;P2;SDS_P1;SDS_P2;PMS_P1;PMS_P2;Temp;Humidity;BMP_temperature;BMP_pressure;BME280_temperature;BME280_humidity;BME280_pressure;Samples;Min_cycle;Max_cycle;Signal;HPM_P1;HPM_P2
2022/02/08 00:01:19;;;;;;;;;14.75;13.75;8.80;50.70;;;;;;4956078;28;9597;-68
2022/02/08 00:03:45;;;;;;;;;10.75;10.00;9.10;51.00;;;;;;4956629;28;8822;-67
2022/02/08 00:08:43;;;;;;;;;13.00;10.00;8.90;50.50;;;;;;4956399;28;8772;-68
2022/02/08 00:11:10;;;;;;;;;8.75;8.75;9.00;50.80;;;;;;4956571;28;8935;-66
2022/02/08 00:13:36;;;;;;;;;10.25;9.25;9.10;50.30;;;;;;4956180;28;8807;-66
2022/02/08 00:16:02;;;;;;;;;8.00;6.00;9.40;49.80;;;;;;4956290;28;8804;-67
2022/02/08 00:18:27;;;;;;;;;12.75;12.75;9.40;49.30;;;;;;4956229;28;8875;-67
2022/02/08 00:20:53;;;;;;;;;14.25;11.25;9.30;49.10;;;;;;4956425;28;8772;-66
2022/02/08 00:23:19;;;;;;;;;9.00;9.00;9.40;49.20;;;;;;4955980;28;8811;-66
2022/02/08 00:25:45;;;;;;;;;7.75;7.00;9.60;49.70;;;;;;4956441;28;8808;-67
2022/02/08 00:28:10;;;;;;;;;10.50;10.50;9.10;48.90;;;;;;4956162;28;8789;-66
2022/02/08 00:30:36;;;;;;;;;11.75;10.75;9.10;49.80;;;;;;4956236;28;8839;-66
2022/02/08 00:33:02;;;;;;;;;9.00;9.00;9.00;50.20;;;;;;4972351;28;8805;-66
2022/02/08 00:35:28;;;;;;;;;8.75;8.00;9.20;49.80;;;;;;4975262;28;8824;-66
2022/02/08 00:37:54;;;;;;;;;9.00;9.00;9.00;49.50;;;;;;4975365;28;8777;-67
2022/02/08 00:40:20;;;;;;;;;12.75;9.25;9.00;50.00;;;;;;4975366;28;8915;-67
2022/02/08 00:42:47;;;;;;;;;10.00;8.00;9.10;50.00;;;;;;4975150;28;8792;-66
2022/02/08 00:47:51;;;;;;;;;5.25;5.25;9.10;49.30;;;;;;4977578;28;8760;-67
2022/02/08 00:50:16;;;;;;;;;10.00;9.50;9.10;49.40;;;;;;4979072;28;8792;-66
2022/02/08 00:52:42;;;;;;;;;8.00;7.25;8.90;49.60;;;;;;4979141;28;8780;-67
2022/02/08 00:55:11;;;;;;;;;11.50;10.25;8.70;50.40;;;;;;4978833;28;8800;-68
2022/02/08 00:57:37;;;;;;;;;9.75;8.75;8.50;50.40;;;;;;4979190;28;8937;-67
2022/02/08 01:00:05;;;;;;;;;9.00;5.50;8.60;50.50;;;;;;4978958;28;8820;-66
2022/02/08 01:02:31;;;;;;;;;6.00;6.00;7.70;51.40;;;;;;4978778;28;8801;-66
2022/02/08 01:05:00;;;;;;;;;5.75;5.75;7.50;53.50;;;;;;4978800;28;8863;-66
2022/02/08 01:07:27;;;;;;;;;9.50;8.00;7.60;53.60;;;;;;4978735;28;8792;-66
2022/02/08 01:09:59;;;;;;;;;5.75;5.75;7.40;53.80;;;;;;4978703;28;8867;-66
2022/02/08 01:12:29;;;;;;;;;6.25;6.25;7.20;54.60;;;;;;4978697;28;8853;-67
2022/02/08 01:14:57;;;;;;;;;6.25;5.00;7.20;54.40;;;;;;4978814;28;8793;-67
2022/02/08 01:17:25;;;;;;;;;8.00;6.50;7.10;54.60;;;;;;4978538;28;8769;-65
2022/02/08 01:20:09;;;;;;;;;8.50;7.50;7.20;55.20;;;;;;4978511;28;8887;-67
2022/02/08 01:22:38;;;;;;;;;9.00;7.50;7.50;54.90;;;;;;4978700;28;8835;-69
2022/02/08 01:25:07;;;;;;;;;6.00;5.00;7.60;54.50;;;;;;4978421;28;8784;-66
2022/02/08 01:27:38;;;;;;;;;6.50;6.50;7.80;53.70;;;;;;4978337;28;8769;-65
2022/02/08 01:30:12;;;;;;;;;5.25;5.25;7.60;53.60;;;;;;4978794;28;8840;-65
2022/02/08 01:33:13;;;;;;;;;5.00;5.00;7.40;54.90;;;;;;4978181;28;8796;-68
2022/02/08 01:36:08;;;;;;;;;5.25;5.00;7.30;55.00;;;;;;4977675;28;8910;-67
2022/02/08 01:38:25;;;;;;;;;4.00;4.00;7.10;55.10;;;;;;4976809;28;8875;-66
2022/02/08 01:41:32;;;;;;;;;6.00;6.00;6.70;56.40;;;;;;4978538;28;9422;-67
2022/02/08 01:46:32;;;;;;;;;7.00;5.25;6.70;56.30;;;;;;4978143;28;9406;-67
2022/02/08 01:51:38;;;;;;;;;5.00;5.00;6.60;56.40;;;;;;4978110;28;8733;-68
2022/02/08 01:54:04;;;;;;;;;6.50;5.00;7.00;56.10;;;;;;4977941;28;8859;-67
2022/02/08 01:56:31;;;;;;;;;7.00;7.00;7.00;55.20;;;;;;4978163;28;8764;-66
2022/02/08 01:58:57;;;;;;;;;5.75;5.75;7.00;56.10;;;;;;4977192;28;8777;-66
2022/02/08 02:01:23;;;;;;;;;6.75;5.75;6.90;55.60;;;;;;4978128;28;8817;-68
2022/02/08 02:03:48;;;;;;;;;4.50;4.50;7.10;55.20;;;;;;4977763;28;8781;-67
2022/02/08 02:06:14;;;;;;;;;9.25;5.50;7.20;54.40;;;;;;4977610;28;8776;-66
2022/02/08 02:08:40;;;;;;;;;6.50;4.75;7.10;55.00;;;;;;4977619;28;8796;-67
2022/02/08 02:11:06;;;;;;;;;10.75;10.75;7.60;54.20;;;;;;4977596;28;8769;-66
2022/02/08 02:16:04;;;;;;;;;9.50;9.50;7.90;52.50;;;;;;4977600;28;8777;-66
2022/02/08 02:18:30;;;;;;;;;13.00;11.50;8.00;52.60;;;;;;4960293;28;8803;-69
2022/02/08 02:20:55;;;;;;;;;8.50;6.50;7.90;52.90;;;;;;4977677;28;8773;-67
2022/02/08 02:23:21;;;;;;;;;12.75;10.50;7.90;53.00;;;;;;4977583;28;8793;-66
2022/02/08 02:25:47;;;;;;;;;13.50;13.00;8.00;52.90;;;;;;4977344;28;8784;-66
2022/02/08 02:28:13;;;;;;;;;12.25;12.25;8.00;52.20;;;;;;4977250;28;8789;-67
2022/02/08 02:30:39;;;;;;;;;12.50;7.00;8.20;52.40;;;;;;4977534;28;8801;-67
2022/02/08 02:33:07;;;;;;;;;10.75;10.00;8.20;51.90;;;;;;4977063;28;8829;-67
2022/02/08 02:35:33;;;;;;;;;12.50;9.75;8.30;51.30;;;;;;4977271;28;8843;-66
2022/02/08 02:38:02;;;;;;;;;12.00;10.00;8.00;51.50;;;;;;4977333;28;8859;-67
2022/02/08 02:40:30;;;;;;;;;14.50;11.50;8.00;52.00;;;;;;4977279;28;8761;-67
2022/02/08 02:42:57;;;;;;;;;6.50;6.50;7.90;51.70;;;;;;4977039;28;8887;-67
2022/02/08 02:45:23;;;;;;;;;12.00;11.50;8.00;51.70;;;;;;4976879;28;8777;-67
2022/02/08 02:47:52;;;;;;;;;10.25;10.25;8.00;51.90;;;;;;4977014;28;8796;-68
2022/02/08 02:50:18;;;;;;;;;14.00;10.00;8.10;51.70;;;;;;4959748;28;8785;-67
2022/02/08 02:52:44;;;;;;;;;11.00;9.75;8.00;52.20;;;;;;4976809;28;8773;-68
2022/02/08 02:55:13;;;;;;;;;10.00;9.00;7.80;52.50;;;;;;4976957;28;8820;-67
2022/02/08 02:57:41;;;;;;;;;12.00;10.00;8.10;52.30;;;;;;4976948;28;9513;-68
2022/02/08 03:00:13;;;;;;;;;7.00;7.00;8.30;51.90;;;;;;4976926;28;9475;-68
2022/02/08 03:02:46;;;;;;;;;10.00;10.00;8.40;51.20;;;;;;4976678;28;8781;-67
2022/02/08 03:18:39;;;;;;;;;7.00;7.00;8.60;50.30;;;;;;4976384;28;8777;-67
2022/02/08 03:21:08;;;;;;;;;6.25;6.00;8.40;50.20;;;;;;4976578;28;8795;-68
2022/02/08 03:23:34;;;;;;;;;8.50;8.00;8.30;50.20;;;;;;4976533;28;9496;-66
2022/02/08 03:26:00;;;;;;;;;6.50;6.50;8.20;50.00;;;;;;4976301;28;8781;-67
2022/02/08 03:28:27;;;;;;;;;6.50;6.50;8.20;50.40;;;;;;4976190;28;8892;-69
2022/02/08 03:30:53;;;;;;;;;8.50;6.50;8.30;50.50;;;;;;4976448;28;8839;-67
2022/02/08 03:33:21;;;;;;;;;6.00;6.00;8.40;50.00;;;;;;4975986;28;8793;-67
2022/02/08 03:35:47;;;;;;;;;5.00;5.00;8.20;50.10;;;;;;4976180;28;8835;-66
2022/02/08 03:38:16;;;;;;;;;6.00;5.00;8.00;51.10;;;;;;4976094;28;8785;-66
2022/02/08 03:40:48;;;;;;;;;5.00;5.00;8.00;50.90;;;;;;4976320;28;8789;-67
2022/02/08 03:43:17;;;;;;;;;6.25;5.75;8.00;50.80;;;;;;4976094;28;8777;-67
2022/02/08 03:45:47;;;;;;;;;5.50;5.50;7.60;51.60;;;;;;4975917;28;8769;-68
2022/02/08 03:48:16;;;;;;;;;5.00;5.00;7.20;53.30;;;;;;4975891;28;8788;-68
2022/02/08 03:50:45;;;;;;;;;9.25;8.50;7.50;53.50;;;;;;4975887;28;8915;-67
2022/02/08 03:53:10;;;;;;;;;7.50;5.75;8.00;52.10;;;;;;4975808;28;8796;-68
2022/02/08 03:55:38;;;;;;;;;6.75;6.00;8.10;51.20;;;;;;4975761;28;8984;-67
2022/02/08 03:58:04;;;;;;;;;5.25;5.25;7.60;52.10;;;;;;4975968;28;8769;-67
2022/02/08 04:00:36;;;;;;;;;4.00;4.00;7.70;52.40;;;;;;4975859;28;8855;-66
2022/02/08 04:03:02;;;;;;;;;7.75;7.75;7.70;52.20;;;;;;4975996;28;8808;-68
2022/02/08 04:05:33;;;;;;;;;5.75;5.75;8.00;51.80;;;;;;4975633;28;8879;-67
2022/02/08 04:08:04;;;;;;;;;8.00;7.00;8.30;51.50;;;;;;4975936;28;8772;-68
2022/02/08 04:10:31;;;;;;;;;10.25;9.00;8.40;50.60;;;;;;4975908;28;8769;-67
2022/02/08 04:13:10;;;;;;;;;6.75;6.75;8.50;50.20;;;;;;4975723;28;8773;-67
2022/02/08 04:16:03;;;;;;;;;7.50;7.50;8.60;50.30;;;;;;4975586;28;8824;-67
2022/02/08 04:37:41;;;;;;;;;8.50;8.00;8.90;49.10;;;;;;4979363;28;8768;-66
2022/02/08 04:40:16;;;;;;;;;11.25;10.25;8.90;49.20;;;;;;4979160;28;8921;-66
2022/02/08 04:45:26;;;;;;;;;8.75;8.00;8.90;49.00;;;;;;4979287;28;8812;-65
2022/02/08 04:50:20;;;;;;;;;10.00;10.00;8.90;48.80;;;;;;4979415;28;8741;-68
2022/02/08 04:52:47;;;;;;;;;12.50;12.50;8.80;48.80;;;;;;4979257;28;8772;-67
2022/02/08 04:58:25;;;;;;;;;16.00;12.50;8.90;49.10;;;;;;4979198;28;8793;-67
2022/02/08 05:00:44;;;;;;;;;15.00;14.00;9.00;48.90;;;;;;4976029;28;8839;-67
2022/02/08 05:48:40;;;;;;;;;22.00;20.75;8.20;50.50;;;;;;4947162;28;8793;-65
2022/02/08 05:51:14;;;;;;;;;24.25;19.75;8.10;50.10;;;;;;4953663;28;8781;-66
2022/02/08 05:56:06;;;;;;;;;20.50;17.75;7.90;50.60;;;;;;4942135;29;8769;-68
2022/02/08 05:58:32;;;;;;;;;17.00;16.00;8.00;51.10;;;;;;4944564;29;8797;-66
2022/02/08 06:00:58;;;;;;;;;8.25;5.50;8.10;50.70;;;;;;4942988;28;9579;-65
2022/02/08 06:03:24;;;;;;;;;14.25;13.00;8.00;50.60;;;;;;4953118;29;8938;-68
2022/02/08 06:05:50;;;;;;;;;11.75;11.75;8.10;50.30;;;;;;4939469;29;8797;-66
2022/02/08 06:08:16;;;;;;;;;13.50;13.50;7.90;50.60;;;;;;4939210;29;8793;-67
2022/02/08 06:10:49;;;;;;;;;15.50;13.50;7.70;51.40;;;;;;4939040;29;8809;-65
2022/02/08 06:13:16;;;;;;;;;18.50;16.75;7.80;51.60;;;;;;4939320;29;8785;-67
2022/02/08 06:15:45;;;;;;;;;24.00;19.00;7.90;50.70;;;;;;4938719;29;8845;-66
2022/02/08 06:18:10;;;;;;;;;14.50;14.50;8.10;50.40;;;;;;4938911;29;8793;-65
2022/02/08 06:20:37;;;;;;;;;21.75;19.00;8.30;49.70;;;;;;4938864;29;8777;-66
2022/02/08 06:23:03;;;;;;;;;21.75;20.75;8.50;49.50;;;;;;4938868;29;8769;-66
2022/02/08 06:25:30;;;;;;;;;22.25;20.00;8.50;49.10;;;;;;4939025;29;8796;-66
2022/02/08 06:27:55;;;;;;;;;25.75;24.00;8.60;49.30;;;;;;4938685;29;8793;-67
2022/02/08 06:30:22;;;;;;;;;38.25;31.75;8.80;49.40;;;;;;4938772;29;8821;-65
2022/02/08 06:32:54;;;;;;;;;28.75;27.00;8.80;48.60;;;;;;4938703;29;8901;-66
2022/02/08 06:35:23;;;;;;;;;27.50;21.25;8.70;48.60;;;;;;4938964;29;8831;-65
2022/02/08 06:37:50;;;;;;;;;31.00;27.50;8.60;48.70;;;;;;4938601;29;8858;-66
2022/02/08 06:40:16;;;;;;;;;24.00;22.50;8.50;49.10;;;;;;4938434;29;8790;-65
2022/02/08 06:42:44;;;;;;;;;28.50;25.50;8.50;49.00;;;;;;4938760;29;8807;-65
2022/02/08 06:45:11;;;;;;;;;27.75;26.50;8.40;49.10;;;;;;4938228;29;8790;-65
2022/02/08 06:47:38;;;;;;;;;21.50;19.75;8.40;49.50;;;;;;4938369;29;8771;-65
2022/02/08 06:50:05;;;;;;;;;25.75;22.50;8.20;49.70;;;;;;4938433;29;8797;-64
2022/02/08 06:52:31;;;;;;;;;33.50;31.25;8.30;49.90;;;;;;4938628;29;8882;-66
2022/02/08 06:54:57;;;;;;;;;20.25;18.25;8.40;49.60;;;;;;4938323;29;8917;-65
2022/02/08 06:57:24;;;;;;;;;37.50;35.50;8.40;50.20;;;;;;4938512;29;8783;-66
2022/02/08 06:59:52;;;;;;;;;26.50;25.50;8.30;50.00;;;;;;4938068;29;8814;-65
2022/02/08 07:02:19;;;;;;;;;28.25;25.25;8.30;50.30;;;;;;4938366;29;8775;-66
2022/02/08 07:04:45;;;;;;;;;28.50;23.75;8.00;50.50;;;;;;4937954;29;8923;-64
2022/02/08 07:07:15;;;;;;;;;27.00;25.00;7.80;51.50;;;;;;4938070;29;8854;-64
2022/02/08 07:09:43;;;;;;;;;32.75;26.75;7.70;51.70;;;;;;4938248;29;9512;-64
2022/02/08 07:12:09;;;;;;;;;29.50;26.00;7.90;52.30;;;;;;4938168;29;8790;-64
2022/02/08 07:14:35;;;;;;;;;25.75;24.25;7.90;51.60;;;;;;4937961;29;8803;-65
2022/02/08 07:17:01;;;;;;;;;22.00;22.00;7.90;51.60;;;;;;4938050;29;8798;-64
2022/02/08 07:19:26;;;;;;;;;40.00;36.25;7.80;51.80;;;;;;4937821;29;8842;-64
2022/02/08 07:21:52;;;;;;;;;28.50;26.50;7.90;52.50;;;;;;4937715;29;8832;-65
2022/02/08 07:24:19;;;;;;;;;36.00;31.50;8.30;51.50;;;;;;4938252;28;8819;-64
2022/02/08 07:26:46;;;;;;;;;34.25;31.00;8.30;51.00;;;;;;4937859;29;8778;-65
2022/02/08 07:29:13;;;;;;;;;28.50;27.25;8.40;50.80;;;;;;4937478;29;8795;-63
2022/02/08 07:31:50;;;;;;;;;23.00;23.00;8.60;50.10;;;;;;4937458;28;8865;-64
2022/02/08 07:34:32;;;;;;;;;25.75;25.00;8.50;50.20;;;;;;4937727;29;8847;-64
2022/02/08 07:37:31;;;;;;;;;28.50;27.75;8.60;49.90;;;;;;4937885;29;9413;-64
2022/02/08 07:39:48;;;;;;;;;24.00;22.50;8.40;50.20;;;;;;4937261;29;8881;-63
2022/02/08 07:42:14;;;;;;;;;32.00;27.75;8.70;50.10;;;;;;4936886;29;8806;-66
2022/02/08 07:44:40;;;;;;;;;19.25;18.25;9.10;49.50;;;;;;4937709;29;8783;-64
2022/02/08 07:47:06;;;;;;;;;34.75;30.25;9.20;48.10;;;;;;4937373;29;8783;-64
2022/02/08 07:49:33;;;;;;;;;28.50;26.50;8.90;48.50;;;;;;4937364;29;8838;-65
2022/02/08 07:51:59;;;;;;;;;33.75;30.50;8.60;49.20;;;;;;4937282;29;8898;-64
2022/02/08 07:54:25;;;;;;;;;38.75;32.25;8.50;49.70;;;;;;4937274;28;8834;-64
2022/02/08 07:56:51;;;;;;;;;33.50;31.75;8.70;49.50;;;;;;4936216;29;8787;-65
2022/02/08 07:59:17;;;;;;;;;34.75;33.25;8.70;48.70;;;;;;4937386;29;8791;-63
2022/02/08 08:01:43;;;;;;;;;27.75;23.25;8.70;48.80;;;;;;4937101;29;8815;-63
2022/02/08 08:04:08;;;;;;;;;31.75;30.25;8.40;49.30;;;;;;4937144;29;8882;-63
2022/02/08 08:06:34;;;;;;;;;29.00;24.75;8.30;50.30;;;;;;4937395;29;8805;-64
2022/02/08 08:09:00;;;;;;;;;36.50;28.25;8.10;50.50;;;;;;4937058;29;8767;-63
2022/02/08 08:11:34;;;;;;;;;30.75;27.50;8.40;50.40;;;;;;4936791;29;8787;-64
2022/02/08 08:14:02;;;;;;;;;34.25;29.00;8.70;49.40;;;;;;4936890;29;8810;-65
2022/02/08 08:16:43;;;;;;;;;42.25;35.00;8.70;49.60;;;;;;4936040;29;8778;-64
2022/02/08 08:21:39;;;;;;;;;29.00;27.75;9.30;47.80;;;;;;4937355;29;8795;-66
2022/02/08 08:24:06;;;;;;;;;38.25;34.25;9.40;47.20;;;;;;4937017;28;8787;-66
2022/02/08 08:26:32;;;;;;;;;38.00;31.00;9.20;47.60;;;;;;4937234;29;8806;-65
2022/02/08 08:28:58;;;;;;;;;28.75;27.00;8.90;47.80;;;;;;4936946;29;8787;-64
2022/02/08 08:31:25;;;;;;;;;43.50;34.50;8.70;48.40;;;;;;4937084;29;8945;-64
2022/02/08 08:33:51;;;;;;;;;41.00;35.50;8.80;49.80;;;;;;4937029;29;8854;-64
2022/02/08 08:36:19;;;;;;;;;35.75;34.50;9.10;48.60;;;;;;4936819;29;8783;-64
2022/02/08 08:38:51;;;;;;;;;38.25;36.00;9.10;47.70;;;;;;4937066;29;8766;-64
2022/02/08 08:49:38;;;;;;;;;27.75;25.50;9.60;46.90;;;;;;4936843;29;8763;-65
2022/02/08 08:52:04;;;;;;;;;23.25;23.25;9.70;46.60;;;;;;4936971;29;9539;-66
2022/02/08 08:54:30;;;;;;;;;29.25;26.25;9.60;46.40;;;;;;4936567;29;8815;-65
2022/02/08 08:56:56;;;;;;;;;22.00;21.75;9.50;46.70;;;;;;4936665;29;8787;-64
2022/02/08 08:59:22;;;;;;;;;18.25;18.25;9.50;46.40;;;;;;4936606;28;8882;-64
2022/02/08 09:01:49;;;;;;;;;19.75;18.00;8.90;46.30;;;;;;4936367;29;8783;-65
2022/02/08 09:04:18;;;;;;;;;28.75;27.50;9.10;48.10;;;;;;4936661;29;8775;-64
2022/02/08 09:06:49;;;;;;;;;36.00;32.50;9.70;47.00;;;;;;4936695;29;8783;-65
2022/02/08 09:09:18;;;;;;;;;35.25;33.00;9.80;45.90;;;;;;4939505;29;8793;-65
2022/02/08 09:15:11;;;;;;;;;33.50;30.25;9.60;46.30;;;;;;4918937;29;9005;-64
2022/02/08 09:28:21;;;;;;;;;41.00;36.25;11.20;42.70;;;;;;4918929;29;8775;-64
2022/02/08 09:30:58;;;;;;;;;16.50;12.50;11.50;42.30;;;;;;4919025;29;8827;-66
2022/02/08 09:33:24;;;;;;;;;25.75;21.75;11.00;42.20;;;;;;4916976;29;8823;-66
2022/02/08 09:35:50;;;;;;;;;17.00;16.00;11.00;43.60;;;;;;4918567;29;8827;-64
2022/02/08 09:38:17;;;;;;;;;17.25;17.25;10.80;44.40;;;;;;4918574;29;8795;-66
2022/02/08 09:40:44;;;;;;;;;19.25;17.00;10.80;43.50;;;;;;4918643;29;8783;-67
2022/02/08 09:43:11;;;;;;;;;23.75;21.00;11.20;42.60;;;;;;4918507;29;8783;-68
2022/02/08 09:45:37;;;;;;;;;19.50;14.50;11.60;42.30;;;;;;4918652;29;8803;-66
2022/02/08 09:48:15;;;;;;;;;13.25;10.50;11.60;40.30;;;;;;4918519;29;8798;-67
2022/02/08 09:50:41;;;;;;;;;12.67;11.67;11.40;40.20;;;;;;4932329;29;8803;-66
2022/02/08 09:53:12;;;;;;;;;12.75;12.00;11.80;40.40;;;;;;4939646;29;8805;-65
2022/02/08 09:55:40;;;;;;;;;14.67;12.67;12.30;39.40;;;;;;4939628;29;8847;-65
2022/02/08 09:58:09;;;;;;;;;13.00;13.00;12.10;38.80;;;;;;4939599;29;8779;-64
2022/02/08 10:00:37;;;;;;;;;24.75;22.25;11.90;39.00;;;;;;4939483;29;8853;-64
2022/02/08 10:03:07;;;;;;;;;18.00;18.00;12.20;40.10;;;;;;4939235;28;8798;-63
2022/02/08 10:05:53;;;;;;;;;19.75;18.50;12.50;39.10;;;;;;4939162;29;8806;-65
2022/02/08 10:08:20;;;;;;;;;21.50;19.75;12.50;38.90;;;;;;4939237;28;8775;-64
2022/02/08 10:10:47;;;;;;;;;14.33;8.67;12.20;38.10;;;;;;4939028;28;8759;-64
2022/02/08 10:24:03;;;;;;;;;10.00;10.00;12.70;37.10;;;;;;4938789;29;8774;-64
2022/02/08 10:37:45;;;;;;;;;23.00;20.33;13.80;34.30;;;;;;4938554;29;8771;-64
2022/02/08 10:40:15;;;;;;;;;15.00;12.67;14.40;33.60;;;;;;4938510;29;8775;-65
2022/02/08 10:42:48;;;;;;;;;9.33;9.33;14.50;32.80;;;;;;4938764;29;9504;-65
2022/02/08 10:45:20;;;;;;;;;14.00;14.00;18.10;28.80;;;;;;4938703;29;8785;-65
2022/02/08 10:47:50;;;;;;;;;14.67;12.67;20.10;26.00;;;;;;4938432;29;8797;-65
2022/02/08 10:50:16;;;;;;;;;13.33;12.67;20.50;24.50;;;;;;4938598;28;8778;-67
2022/02/08 10:52:44;;;;;;;;;16.00;14.00;20.40;24.40;;;;;;4938296;29;8836;-66
2022/02/08 10:55:21;;;;;;;;;11.00;10.33;21.10;24.20;;;;;;4938359;29;9484;-65
2022/02/08 10:58:06;;;;;;;;;16.00;16.00;22.00;23.00;;;;;;4938262;28;11611;-64
2022/02/08 11:00:42;;;;;;;;;9.25;7.50;23.80;21.80;;;;;;4938256;29;11598;-64
2022/02/08 11:03:17;;;;;;;;;15.50;14.50;24.00;21.00;;;;;;4938002;29;11537;-64
2022/02/08 11:06:40;;;;;;;;;12.50;12.50;22.80;21.50;;;;;;4938816;28;11612;-65
2022/02/08 11:09:15;;;;;;;;;10.50;10.50;21.10;22.70;;;;;;4949942;28;11578;-65
2022/02/08 11:22:30;;;;;;;;;11.00;11.00;23.90;21.10;;;;;;4957170;28;11638;-65
2022/02/08 11:25:41;;;;;;;;;12.25;12.25;24.70;19.70;;;;;;4956656;28;11487;-65
2022/02/08 11:28:47;;;;;;;;;15.25;15.25;26.00;19.60;;;;;;4956646;28;11532;-65
2022/02/08 11:31:53;;;;;;;;;7.75;7.75;29.00;18.40;;;;;;4956051;28;11588;-67
2022/02/08 11:45:35;;;;;;;;;10.00;9.75;22.30;20.60;;;;;;4956728;28;12135;-65
2022/02/08 11:48:13;;;;;;;;;12.00;12.00;19.60;24.00;;;;;;4955890;28;11551;-65
2022/02/08 11:51:00;;;;;;;;;12.67;12.67;21.00;25.10;;;;;;4956522;28;12177;-67
2022/02/08 12:07:16;;;;;;;;;7.25;7.25;28.20;17.50;;;;;;4956217;28;11533;-68
2022/02/08 12:09:51;;;;;;;;;11.50;11.50;24.80;17.90;;;;;;4955618;28;11551;-67
2022/02/08 12:49:16;;;;;;;;;18.33;18.00;18.80;28.10;;;;;;4959621;28;8792;-67
2022/02/08 14:09:13;;;;;;;;;25.00;22.67;15.40;33.10;;;;;;4948359;28;8879;-67
2022/02/08 14:25:03;;;;;;;;;17.33;17.33;22.90;23.20;;;;;;4956662;28;8780;-68
2022/02/08 14:30:24;;;;;;;;;23.00;21.33;25.30;20.80;;;;;;4946722;28;8810;-63
2022/02/08 14:33:29;;;;;;;;;19.33;18.67;24.50;20.40;;;;;;4952315;28;8836;-63
2022/02/08 15:07:59;;;;;;;;;41.25;35.25;15.70;31.70;;;;;;4898154;29;9543;-66
2022/02/08 15:10:36;;;;;;;;;22.75;20.75;15.60;31.80;;;;;;4898159;29;8790;-69
2022/02/08 15:13:03;;;;;;;;;40.50;35.75;15.60;31.90;;;;;;4898025;29;8769;-71
2022/02/08 15:17:55;;;;;;;;;23.67;23.67;15.60;31.50;;;;;;4898065;29;8872;-71
2022/02/08 15:20:22;;;;;;;;;24.33;24.00;15.40;31.60;;;;;;4882229;29;8802;-70
2022/02/08 15:22:48;;;;;;;;;33.25;29.00;15.30;32.10;;;;;;4897810;29;8793;-70
2022/02/08 15:25:14;;;;;;;;;28.25;26.25;15.10;32.50;;;;;;4897013;29;9493;-67
2022/02/08 15:27:43;;;;;;;;;28.00;26.25;15.10;32.50;;;;;;4897598;29;8785;-68
2022/02/08 15:30:10;;;;;;;;;35.75;31.75;15.00;32.70;;;;;;4897571;29;8822;-69
2022/02/08 15:32:37;;;;;;;;;21.75;19.75;14.90;32.70;;;;;;4897398;29;8833;-71
2022/02/08 15:35:11;;;;;;;;;23.25;23.00;14.60;33.30;;;;;;4897218;29;8877;-70
2022/02/08 15:37:37;;;;;;;;;19.33;19.33;14.00;33.90;;;;;;4897035;29;8928;-70
2022/02/08 15:40:09;;;;;;;;;21.75;20.75;14.00;34.30;;;;;;4942754;28;8834;-69
2022/02/08 15:42:39;;;;;;;;;21.75;19.00;14.00;34.40;;;;;;4948672;28;8907;-70
2022/02/08 15:45:17;;;;;;;;;24.75;23.75;13.90;34.70;;;;;;4944388;28;9427;-66
2022/02/08 15:47:43;;;;;;;;;25.75;24.00;13.90;34.90;;;;;;4946420;28;9572;-69
2022/02/08 15:50:16;;;;;;;;;30.00;25.50;13.70;35.50;;;;;;4946937;29;8811;-67
2022/02/08 15:55:16;;;;;;;;;40.75;36.00;13.40;35.80;;;;;;4937431;29;8827;-67
2022/02/08 16:00:36;;;;;;;;;57.75;48.25;13.30;36.10;;;;;;4947695;28;8832;-69
2022/02/08 16:08:37;;;;;;;;;76.50;62.00;13.30;36.80;;;;;;4953153;28;8843;-68
2022/02/08 16:11:30;;;;;;;;;82.25;68.75;13.10;36.80;;;;;;4953121;28;9573;-69
2022/02/08 16:14:08;;;;;;;;;75.25;59.50;13.10;37.40;;;;;;4956099;28;8834;-68
2022/02/08 16:19:25;;;;;;;;;84.50;68.25;13.10;37.40;;;;;;4955721;28;8765;-67
2022/02/08 16:24:36;;;;;;;;;88.50;80.75;12.90;37.40;;;;;;4956348;29;8823;-66
2022/02/08 16:27:23;;;;;;;;;92.25;77.75;12.90;37.30;;;;;;4955477;29;8792;-67
2022/02/08 16:54:22;;;;;;;;;118.00;114.50;12.30;38.40;;;;;;4951751;29;8796;-63
2022/02/08 16:59:31;;;;;;;;;142.25;133.75;12.60;38.40;;;;;;4953914;29;8764;-64
2022/02/08 17:02:00;;;;;;;;;125.25;120.25;12.60;38.30;;;;;;4951522;29;8807;-63
2022/02/08 17:04:26;;;;;;;;;138.00;119.50;12.30;38.80;;;;;;4954525;29;8780;-64
2022/02/08 17:06:53;;;;;;;;;148.50;138.25;12.50;39.10;;;;;;4953190;29;8914;-64
2022/02/08 17:09:38;;;;;;;;;136.75;123.50;12.60;39.10;;;;;;4953907;29;8776;-63
2022/02/08 17:12:20;;;;;;;;;149.50;134.50;12.60;39.00;;;;;;4951855;28;9713;-63
2022/02/08 17:49:40;;;;;;;;;95.75;84.75;12.10;40.40;;;;;;4949246;28;8794;-64
2022/02/08 17:52:06;;;;;;;;;86.75;73.75;11.80;40.50;;;;;;4939200;29;8789;-64
2022/02/08 17:54:32;;;;;;;;;76.00;61.00;11.40;41.10;;;;;;4945852;28;8846;-63
2022/02/08 17:56:58;;;;;;;;;71.00;58.00;11.10;41.70;;;;;;4954020;28;8870;-63
2022/02/08 17:59:24;;;;;;;;;85.25;67.00;11.40;41.70;;;;;;4946228;28;8825;-64
2022/02/08 18:01:51;;;;;;;;;77.50;61.75;11.50;41.20;;;;;;4955909;28;8791;-64
2022/02/08 18:04:18;;;;;;;;;74.50;60.00;11.40;41.10;;;;;;4957180;28;8797;-63
2022/02/08 18:06:44;;;;;;;;;67.25;53.75;11.40;40.80;;;;;;4957999;28;8780;-65
2022/02/08 18:09:10;;;;;;;;;75.50;57.50;11.70;40.50;;;;;;4957927;28;8821;-64
2022/02/08 18:11:39;;;;;;;;;77.50;60.00;11.50;40.30;;;;;;4958215;28;8787;-64
2022/02/08 18:14:08;;;;;;;;;70.25;53.50;11.50;40.40;;;;;;4958283;28;8779;-64
2022/02/08 18:16:38;;;;;;;;;72.00;59.00;11.40;40.30;;;;;;4958087;28;8786;-63
2022/02/08 18:19:17;;;;;;;;;69.00;54.25;11.30;41.20;;;;;;4958109;28;8787;-65
2022/02/08 18:22:07;;;;;;;;;70.50;55.25;11.30;40.50;;;;;;4958077;28;8806;-65
2022/02/08 18:25:36;;;;;;;;;73.75;58.75;11.20;40.50;;;;;;4958072;28;8775;-65
2022/02/08 18:27:39;;;;;;;;;83.25;65.00;11.10;40.80;;;;;;4943559;29;9466;-65
2022/02/08 19:08:54;;;;;;;;;91.00;76.00;11.40;39.40;;;;;;4935953;29;8882;-66
2022/02/08 19:17:08;;;;;;;;;74.00;57.00;11.30;39.70;;;;;;4957136;28;9391;-65
2022/02/08 19:22:00;;;;;;;;;56.00;46.50;10.90;39.80;;;;;;4957230;28;8788;-64
2022/02/08 19:24:26;;;;;;;;;53.25;43.75;11.00;39.40;;;;;;4957157;28;8780;-66
2022/02/08 19:26:58;;;;;;;;;42.50;39.25;11.00;39.60;;;;;;4956778;28;8899;-65
2022/02/08 19:29:26;;;;;;;;;56.75;47.75;11.00;39.20;;;;;;4957060;28;9500;-64
2022/02/08 19:31:53;;;;;;;;;54.75;45.75;11.10;39.10;;;;;;4956868;28;8816;-64
2022/02/08 19:34:20;;;;;;;;;58.25;48.75;11.00;39.10;;;;;;4956739;28;8802;-65
2022/02/08 19:36:46;;;;;;;;;66.25;53.75;11.00;39.00;;;;;;4956731;28;8772;-64
2022/02/08 19:39:13;;;;;;;;;79.75;63.25;11.20;38.80;;;;;;4956370;28;8901;-65
2022/02/08 19:41:39;;;;;;;;;80.00;63.00;11.40;38.20;;;;;;4956085;28;8780;-64
2022/02/08 19:44:09;;;;;;;;;73.25;58.25;11.50;38.10;;;;;;4956701;28;8796;-65
2022/02/08 19:46:35;;;;;;;;;65.50;55.25;11.60;37.90;;;;;;4970637;28;8830;-66
2022/02/08 19:49:02;;;;;;;;;57.25;48.00;11.40;37.90;;;;;;4976202;28;9547;-66
2022/02/08 19:51:28;;;;;;;;;61.25;50.50;11.30;37.70;;;;;;4975935;28;8899;-66
2022/02/08 19:53:56;;;;;;;;;56.75;45.25;11.10;38.00;;;;;;4975368;28;8786;-67
2022/02/08 19:56:37;;;;;;;;;10.00;2.75;11.10;38.50;;;;;;4975663;28;8825;-66
2022/02/08 19:59:07;;;;;;;;;60.00;50.00;11.00;38.20;;;;;;4975698;28;8793;-66
2022/02/08 20:01:35;;;;;;;;;68.00;51.00;11.00;38.50;;;;;;4975852;28;8919;-66
2022/02/08 20:04:17;;;;;;;;;56.25;45.00;10.80;38.60;;;;;;4974514;28;8794;-65
2022/02/08 20:06:43;;;;;;;;;48.75;42.00;11.00;39.10;;;;;;4975596;28;8805;-66
2022/02/08 20:09:09;;;;;;;;;48.75;42.75;10.90;39.40;;;;;;4975851;28;8781;-65
2022/02/08 20:11:36;;;;;;;;;55.00;44.00;11.10;38.90;;;;;;4975788;28;8773;-66
2022/02/08 20:14:07;;;;;;;;;51.75;44.00;11.00;38.70;;;;;;4975613;28;8778;-66
2022/02/08 20:16:35;;;;;;;;;52.75;44.50;10.80;38.90;;;;;;4967850;28;8913;-66
2022/02/08 20:19:04;;;;;;;;;56.75;45.25;10.80;39.20;;;;;;4975051;28;8774;-66
2022/02/08 20:21:32;;;;;;;;;53.75;44.75;10.70;39.40;;;;;;4975486;28;8769;-66
2022/02/08 20:24:01;;;;;;;;;54.00;47.00;10.80;39.90;;;;;;4949723;28;8800;-66
2022/02/08 20:26:42;;;;;;;;;56.50;47.00;10.60;40.20;;;;;;4949429;28;8789;-66
2022/02/08 20:29:09;;;;;;;;;57.50;46.75;10.70;40.50;;;;;;4950887;28;8776;-66
2022/02/08 20:31:35;;;;;;;;;56.25;44.75;10.90;40.20;;;;;;4948329;28;8813;-66
2022/02/08 20:34:01;;;;;;;;;61.00;50.00;11.10;39.80;;;;;;4953189;29;8787;-66
2022/02/08 20:36:26;;;;;;;;;61.25;49.50;11.10;39.80;;;;;;4946151;29;8811;-66
2022/02/08 20:38:52;;;;;;;;;53.75;45.75;11.40;39.60;;;;;;4950322;29;8785;-66
2022/02/08 20:41:20;;;;;;;;;56.00;44.75;11.20;39.80;;;;;;4953649;29;8772;-67
2022/02/08 20:43:47;;;;;;;;;57.00;47.50;11.40;39.50;;;;;;4956136;29;8907;-66
2022/02/08 20:46:15;;;;;;;;;57.50;46.25;11.30;39.60;;;;;;4968172;28;8803;-67
2022/02/08 20:48:42;;;;;;;;;56.00;47.25;11.30;39.70;;;;;;4974807;28;8782;-66
2022/02/08 20:51:08;;;;;;;;;54.25;46.00;11.60;39.20;;;;;;4975374;28;8799;-67
2022/02/08 20:53:51;;;;;;;;;55.00;43.00;11.80;38.60;;;;;;4958237;28;8796;-67